createdAt,value
2023-11-24T00:00:12.585Z,10.11
2023-11-24T00:02:41.325Z,10.17
2023-11-24T00:05:10.632Z,10.08
2023-11-24T00:07:40.466Z,9.55
2023-11-24T00:10:09.916Z,9.65
2023-11-24T00:12:38.306Z,9.81
2023-11-24T00:15:07.643Z,9.87
2023-11-24T00:17:39.392Z,9.65
2023-11-24T00:20:11.070Z,9.55
2023-11-24T00:22:39.567Z,9.92
2023-11-24T00:25:10.598Z,9.93
2023-11-24T00:27:39.634Z,9.93
2023-11-24T00:30:09.622Z,10.13
2023-11-24T00:32:40.940Z,10.13
2023-11-24T00:35:09.746Z,9.99
2023-11-24T00:37:38.101Z,10.03
2023-11-24T00:40:14.759Z,9.80
2023-11-24T00:42:44.336Z,10.27
2023-11-24T00:45:13.563Z,9.87
2023-11-24T00:47:43.794Z,9.93
2023-11-24T00:50:12.305Z,9.86
2023-11-24T00:52:40.523Z,9.73
2023-11-24T00:55:09.230Z,9.57
2023-11-24T00:57:38.074Z,9.42
2023-11-24T01:00:09.608Z,9.61
2023-11-24T01:02:38.527Z,9.21
2023-11-24T01:05:10.614Z,9.27
2023-11-24T01:07:39.109Z,9.36
2023-11-24T01:10:10.119Z,9.28
2023-11-24T01:12:39.859Z,9.07
2023-11-24T01:15:10.014Z,9.24
2023-11-24T01:17:38.507Z,9.18
2023-11-24T01:20:11.824Z,9.40
2023-11-24T01:22:40.390Z,8.93
2023-11-24T01:25:10.196Z,9.06
2023-11-24T01:27:38.710Z,9.00
2023-11-24T01:30:09.631Z,9.41
2023-11-24T01:32:38.540Z,8.65
2023-11-24T01:35:10.728Z,8.91
2023-11-24T01:37:39.246Z,8.90
2023-11-24T01:40:10.782Z,8.85
2023-11-24T01:42:39.807Z,8.69
2023-11-24T01:45:10.627Z,8.71
2023-11-24T01:47:39.530Z,8.61
2023-11-24T01:50:11.999Z,8.87
2023-11-24T01:52:42.409Z,8.61
2023-11-24T01:55:14.154Z,8.58
2023-11-24T01:57:42.911Z,8.77
2023-11-24T02:00:14.823Z,8.84
2023-11-24T02:02:43.989Z,8.61
2023-11-24T02:05:15.328Z,8.60
2023-11-24T02:07:43.800Z,8.52
2023-11-24T02:10:14.243Z,8.58
2023-11-24T02:12:42.618Z,8.57
2023-11-24T02:15:11.870Z,8.51
2023-11-24T02:17:42.107Z,8.55
2023-11-24T02:20:15.826Z,8.95
2023-11-24T02:22:45.876Z,8.67
2023-11-24T02:25:15.109Z,8.63
2023-11-24T02:27:43.485Z,8.52
2023-11-24T02:30:12.873Z,8.87
2023-11-24T02:32:41.333Z,8.96
2023-11-24T02:35:10.986Z,8.90
2023-11-24T02:37:39.855Z,8.88
2023-11-24T02:40:12.203Z,8.89
2023-11-24T02:42:41.402Z,8.82
2023-11-24T02:45:10.271Z,8.79
2023-11-24T02:47:38.890Z,8.84
2023-11-24T02:50:08.976Z,8.73
2023-11-24T02:52:37.319Z,8.65
2023-11-24T02:55:06.609Z,8.66
2023-11-24T02:57:36.357Z,8.80
2023-11-24T03:00:06.494Z,8.85
2023-11-24T03:02:33.809Z,8.79
2023-11-24T03:05:02.211Z,8.81
2023-11-24T03:07:30.620Z,8.94
2023-11-24T03:09:59.197Z,8.76
2023-11-24T03:12:28.179Z,8.83
2023-11-24T03:14:57.977Z,8.79
2023-11-24T03:17:26.389Z,8.68
2023-11-24T03:19:56.283Z,8.53
2023-11-24T03:22:24.620Z,8.43
2023-11-24T03:24:53.112Z,8.62
2023-11-24T03:27:21.581Z,8.89
2023-11-24T03:29:51.343Z,8.95
2023-11-24T03:32:21.196Z,8.91
2023-11-24T03:34:49.705Z,8.83
2023-11-24T03:37:18.740Z,8.86
2023-11-24T03:39:47.078Z,8.81
2023-11-24T03:42:15.507Z,8.45
2023-11-24T03:44:43.845Z,8.58
2023-11-24T03:47:12.297Z,8.69
2023-11-24T03:49:42.154Z,8.88
2023-11-24T03:52:10.520Z,8.70
2023-11-24T03:54:38.936Z,8.48
2023-11-24T03:57:07.376Z,8.54
2023-11-24T03:59:35.656Z,8.27
2023-11-24T04:02:05.952Z,8.82
2023-11-24T04:04:34.476Z,8.63
2023-11-24T04:07:05.447Z,8.76
2023-11-24T04:09:34.024Z,8.80
2023-11-24T04:12:02.415Z,8.97
2023-11-24T04:14:31.067Z,8.71
2023-11-24T04:17:01.314Z,8.69
2023-11-24T04:19:29.813Z,8.55
2023-11-24T04:21:58.246Z,8.34
2023-11-24T04:24:28.154Z,8.65
2023-11-24T04:26:57.399Z,8.48
2023-11-24T04:29:25.879Z,8.28
2023-11-24T04:31:55.693Z,8.04
2023-11-24T04:34:25.150Z,8.05
2023-11-24T04:36:54.962Z,8.16
2023-11-24T04:39:23.374Z,7.98
2023-11-24T04:41:53.483Z,8.29
2023-11-24T04:44:22.216Z,8.11
2023-11-24T04:46:50.859Z,8.25
2023-11-24T04:49:20.058Z,8.20
2023-11-24T04:51:48.576Z,8.18
2023-11-24T04:54:16.970Z,8.13
2023-11-24T04:56:45.281Z,8.11
2023-11-24T04:59:15.141Z,7.95
2023-11-24T05:01:43.929Z,8.04
2023-11-24T05:04:12.504Z,8.06
2023-11-24T05:06:40.869Z,8.14
2023-11-24T05:09:09.434Z,8.12
2023-11-24T05:11:37.640Z,8.18
2023-11-24T05:14:05.946Z,8.00
2023-11-24T05:16:35.826Z,8.15
2023-11-24T05:19:04.531Z,7.79
2023-11-24T05:21:32.905Z,7.94
2023-11-24T05:24:02.241Z,7.70
2023-11-24T05:26:30.839Z,7.78
2023-11-24T05:29:12.576Z,8.10
2023-11-24T05:31:42.945Z,7.99
2023-11-24T05:34:11.401Z,8.02
2023-11-24T05:36:39.936Z,7.37
2023-11-24T05:39:09.101Z,7.39
2023-11-24T05:41:37.489Z,7.62
2023-11-24T05:44:06.236Z,7.56
2023-11-24T05:46:34.759Z,7.01
2023-11-24T05:49:05.235Z,7.59
2023-11-24T05:51:34.372Z,7.48
2023-11-24T05:54:02.720Z,7.42
2023-11-24T05:56:31.006Z,7.34
2023-11-24T05:58:59.486Z,7.30
2023-11-24T06:01:27.863Z,7.22
2023-11-24T06:03:56.255Z,7.09
2023-11-24T06:06:26.025Z,7.33
2023-11-24T06:08:54.397Z,6.93
2023-11-24T06:11:22.733Z,7.12
2023-11-24T06:13:51.722Z,7.04
2023-11-24T06:16:20.072Z,7.12
2023-11-24T06:18:48.556Z,7.03
2023-11-24T06:21:19.896Z,7.34
2023-11-24T06:23:52.234Z,7.68
2023-11-24T06:26:20.608Z,7.32
2023-11-24T06:28:49.001Z,7.50
2023-11-24T06:31:17.490Z,7.53
2023-11-24T06:33:45.958Z,7.65
2023-11-24T06:36:14.371Z,7.74
2023-11-24T06:38:42.652Z,7.37
2023-11-24T06:41:13.307Z,7.41
2023-11-24T06:43:41.751Z,7.35
2023-11-24T06:46:10.151Z,7.54
2023-11-24T06:48:39.434Z,7.62
2023-11-24T06:51:08.530Z,7.78
2023-11-24T06:53:37.163Z,7.91
2023-11-24T06:56:05.836Z,7.50
2023-11-24T06:58:35.612Z,7.92
2023-11-24T07:01:06.078Z,8.05
2023-11-24T07:03:35.137Z,7.85
2023-11-24T07:06:04.161Z,7.74
2023-11-24T07:08:32.495Z,7.78
2023-11-24T07:11:01.002Z,7.90
2023-11-24T07:13:29.522Z,7.99
2023-11-24T07:15:59.303Z,7.71
2023-11-24T07:18:27.893Z,7.86
2023-11-24T07:20:56.403Z,7.71
2023-11-24T07:23:24.676Z,7.68
2023-11-24T07:25:53.079Z,7.49
2023-11-24T07:28:21.554Z,7.65
2023-11-24T07:30:50.226Z,7.67
2023-11-24T07:33:20.143Z,7.93
2023-11-24T07:35:48.605Z,7.84
2023-11-24T07:38:17.635Z,7.47
2023-11-24T07:40:46.030Z,7.83
2023-11-24T07:43:14.598Z,8.04
2023-11-24T07:45:43.495Z,7.89
2023-11-24T07:48:12.274Z,7.93
2023-11-24T07:50:42.124Z,8.26
2023-11-24T07:53:14.654Z,7.93
2023-11-24T07:55:43.169Z,7.91
2023-11-24T07:58:12.333Z,8.01
2023-11-24T08:00:41.509Z,8.16
2023-11-24T08:03:09.929Z,8.04
2023-11-24T08:05:38.463Z,7.66
2023-11-24T08:08:08.239Z,8.16
2023-11-24T08:10:36.687Z,8.27
2023-11-24T08:13:04.989Z,8.27
2023-11-24T08:15:33.567Z,8.23
2023-11-24T08:18:02.015Z,8.09
2023-11-24T08:20:30.585Z,7.95
2023-11-24T08:22:59.366Z,7.99
2023-11-24T08:25:29.327Z,7.90
2023-11-24T08:27:58.155Z,8.18
2023-11-24T08:30:26.624Z,7.96
2023-11-24T08:32:55.081Z,8.02
2023-11-24T08:35:23.534Z,8.04
2023-11-24T08:37:52.119Z,8.25
2023-11-24T08:40:22.869Z,7.90
2023-11-24T08:42:53.277Z,8.06
2023-11-24T08:45:23.658Z,8.13
2023-11-24T08:47:52.058Z,7.84
2023-11-24T08:50:20.555Z,8.17
2023-11-24T08:52:49.551Z,8.18
2023-11-24T08:55:21.123Z,8.50
2023-11-24T08:57:50.036Z,8.34
2023-11-24T09:00:20.545Z,8.33
2023-11-24T09:02:50.357Z,8.35
2023-11-24T09:05:19.151Z,8.69
2023-11-24T09:07:47.840Z,8.41
2023-11-24T09:10:16.645Z,8.44
2023-11-24T09:12:45.450Z,9.60
2023-11-24T09:15:14.562Z,10.83
2023-11-24T09:17:45.063Z,12.13
2023-11-24T09:20:17.981Z,12.32
2023-11-24T09:22:46.811Z,12.20
2023-11-24T09:25:17.347Z,14.27
2023-11-24T09:27:46.917Z,14.07
2023-11-24T09:30:15.887Z,14.27
2023-11-24T09:32:47.126Z,13.89
2023-11-24T09:35:15.923Z,13.25
2023-11-24T09:37:46.498Z,14.89
2023-11-24T09:40:17.940Z,16.70
2023-11-24T09:42:48.795Z,15.44
2023-11-24T09:45:20.686Z,16.84
2023-11-24T09:47:52.965Z,16.87
2023-11-24T09:50:26.777Z,13.48
2023-11-24T09:52:57.424Z,12.10
2023-11-24T09:55:28.468Z,11.08
2023-11-24T09:57:58.599Z,10.68
2023-11-24T10:00:28.700Z,10.18
2023-11-24T10:03:04.171Z,10.04
2023-11-24T10:05:33.514Z,11.51
2023-11-24T10:08:02.589Z,11.41
2023-11-24T10:10:31.274Z,11.11
2023-11-24T10:13:01.414Z,10.08
2023-11-24T10:15:32.173Z,9.15
2023-11-24T10:18:03.721Z,9.50
2023-11-24T10:20:33.940Z,9.34
2023-11-24T10:23:05.210Z,9.19
2023-11-24T10:25:35.975Z,9.42
2023-11-24T10:28:08.298Z,8.83
2023-11-24T10:30:37.429Z,8.90
2023-11-24T10:33:07.944Z,9.32
2023-11-24T10:35:56.337Z,10.25
2023-11-24T10:38:26.509Z,10.87
2023-11-24T10:40:55.801Z,13.43
2023-11-24T10:43:24.889Z,15.65
2023-11-24T10:45:53.997Z,14.01
2023-11-24T10:48:29.386Z,13.22
2023-11-24T10:51:00.537Z,12.12
2023-11-24T10:53:37.048Z,12.68
2023-11-24T10:56:07.226Z,13.30
2023-11-24T10:58:35.857Z,15.27
2023-11-24T11:01:04.878Z,13.16
2023-11-24T11:03:37.194Z,13.09
2023-11-24T11:06:15.788Z,12.20
2023-11-24T11:08:48.031Z,12.23
2023-11-24T11:11:36.415Z,13.29
2023-11-24T11:14:09.008Z,12.88
2023-11-24T11:16:39.369Z,12.17
2023-11-24T11:19:34.157Z,11.05
2023-11-24T11:22:02.911Z,11.03
2023-11-24T11:24:31.571Z,12.91
2023-11-24T11:27:00.291Z,12.99
2023-11-24T11:29:33.405Z,13.98
2023-11-24T11:32:06.103Z,13.96
2023-11-24T11:34:36.912Z,13.61
2023-11-24T11:37:13.332Z,13.45
2023-11-24T11:39:54.997Z,12.38
2023-11-24T11:42:33.349Z,14.29
2023-11-24T11:45:11.288Z,12.98
2023-11-24T11:47:51.668Z,12.43
2023-11-24T11:50:22.612Z,12.56
2023-11-24T11:52:51.554Z,11.28
2023-11-24T11:55:23.013Z,10.94
2023-11-24T11:57:54.712Z,11.11
2023-11-24T12:00:27.651Z,11.49
2023-11-24T12:02:57.893Z,10.86
2023-11-24T12:05:28.318Z,11.21
2023-11-24T12:07:59.827Z,10.23
2023-11-24T12:10:31.289Z,10.30
2023-11-24T12:13:05.623Z,10.76
2023-11-24T12:15:35.691Z,10.51
2023-11-24T12:18:06.765Z,9.89
2023-11-24T12:20:38.658Z,9.78
2023-11-24T12:23:09.172Z,9.38
2023-11-24T12:25:40.545Z,9.13
2023-11-24T12:28:11.072Z,9.25
2023-11-24T12:30:43.006Z,8.64
2023-11-24T12:33:19.960Z,8.77
2023-11-24T12:35:50.410Z,8.50
2023-11-24T12:38:19.572Z,8.38
2023-11-24T12:40:49.071Z,8.12
2023-11-24T12:43:18.682Z,7.82
2023-11-24T12:45:50.186Z,8.17
2023-11-24T12:48:22.789Z,8.23
2023-11-24T12:50:57.369Z,8.45
2023-11-24T12:53:26.339Z,8.52
2023-11-24T12:55:54.981Z,8.95
2023-11-24T12:58:25.130Z,9.22
2023-11-24T13:00:55.524Z,9.55
2023-11-24T13:03:24.307Z,9.24
2023-11-24T13:05:54.520Z,8.83
2023-11-24T13:08:23.063Z,9.00
2023-11-24T13:10:54.468Z,8.75
2023-11-24T13:13:25.781Z,9.32
2023-11-24T13:15:54.754Z,8.49
2023-11-24T13:18:23.418Z,8.55
2023-11-24T13:20:51.918Z,8.44
2023-11-24T13:23:21.664Z,8.60
2023-11-24T13:25:50.563Z,8.79
2023-11-24T13:28:18.995Z,8.67
2023-11-24T13:30:51.471Z,8.54
2023-11-24T13:33:19.870Z,8.72
2023-11-24T13:35:48.260Z,9.00
2023-11-24T13:38:17.955Z,8.69
2023-11-24T13:40:47.808Z,8.78
2023-11-24T13:43:16.444Z,8.85
2023-11-24T13:45:45.032Z,8.32
2023-11-24T13:48:13.807Z,8.64
2023-11-24T13:50:42.305Z,8.78
2023-11-24T13:53:13.328Z,8.81
2023-11-24T13:55:44.949Z,8.42
2023-11-24T13:58:15.488Z,8.06
2023-11-24T14:00:44.182Z,7.57
2023-11-24T14:03:12.920Z,7.49
2023-11-24T14:05:42.182Z,7.87
2023-11-24T14:08:11.523Z,7.53
2023-11-24T14:10:40.001Z,7.81
2023-11-24T14:13:10.813Z,7.77
2023-11-24T14:15:41.207Z,7.65
2023-11-24T14:18:10.194Z,7.51
2023-11-24T14:20:41.075Z,7.38
2023-11-24T14:23:09.513Z,7.67
2023-11-24T14:25:38.180Z,7.44
2023-11-24T14:28:06.745Z,7.33
2023-11-24T14:31:02.006Z,7.38
2023-11-24T14:33:31.513Z,7.01
2023-11-24T14:35:59.858Z,7.27
2023-11-24T14:38:31.159Z,7.09
2023-11-24T14:41:05.727Z,7.41
2023-11-24T14:43:34.869Z,7.75
2023-11-24T14:46:04.931Z,7.73
2023-11-24T14:48:33.288Z,7.31
2023-11-24T14:51:01.869Z,7.40
2023-11-24T14:53:31.705Z,7.54
2023-11-24T14:56:00.321Z,7.36
2023-11-24T14:58:30.535Z,7.04
2023-11-24T15:00:59.051Z,7.20
2023-11-24T15:03:30.401Z,7.39
2023-11-24T15:05:58.853Z,6.98
2023-11-24T15:08:28.303Z,7.08
2023-11-24T15:10:56.938Z,6.74
2023-11-24T15:13:26.217Z,6.96
2023-11-24T15:15:54.797Z,6.79
2023-11-24T15:18:23.113Z,6.87
2023-11-24T15:20:54.753Z,6.87
2023-11-24T15:23:25.001Z,6.50
2023-11-24T15:25:55.063Z,6.70
2023-11-24T15:28:24.312Z,6.73
2023-11-24T15:30:53.947Z,6.74
2023-11-24T15:33:23.010Z,6.57
2023-11-24T15:35:53.356Z,6.60
2023-11-24T15:38:24.276Z,6.61
2023-11-24T15:40:53.772Z,6.54
2023-11-24T15:43:22.920Z,6.54
2023-11-24T15:45:54.082Z,6.46
2023-11-24T15:48:22.821Z,6.32
2023-11-24T15:50:53.172Z,6.86
2023-11-24T15:53:23.321Z,6.50
2023-11-24T15:55:52.778Z,6.52
2023-11-24T15:58:26.403Z,6.56
2023-11-24T16:00:55.999Z,6.41
2023-11-24T16:03:25.887Z,6.49
2023-11-24T16:05:59.278Z,6.46
2023-11-24T16:08:34.354Z,6.28
2023-11-24T16:11:11.105Z,6.66
2023-11-24T16:13:42.632Z,6.90
2023-11-24T16:16:11.607Z,6.70
2023-11-24T16:18:41.779Z,6.95
2023-11-24T16:21:12.282Z,7.02
2023-11-24T16:23:40.765Z,6.92
2023-11-24T16:26:11.428Z,6.99
2023-11-24T16:28:40.759Z,6.83
2023-11-24T16:31:09.233Z,6.58
2023-11-24T16:33:38.997Z,6.84
2023-11-24T16:36:09.666Z,7.12
2023-11-24T16:38:42.452Z,7.16
2023-11-24T16:41:11.284Z,6.62
2023-11-24T16:43:40.181Z,6.81
2023-11-24T16:46:09.555Z,6.55
2023-11-24T16:48:41.794Z,6.70
2023-11-24T16:51:10.148Z,7.02
2023-11-24T16:53:39.940Z,6.63
2023-11-24T16:56:08.597Z,6.31
2023-11-24T16:58:36.974Z,6.27
2023-11-24T17:01:05.477Z,6.40
2023-11-24T17:03:38.529Z,6.18
2023-11-24T17:06:07.717Z,6.07
2023-11-24T17:08:36.016Z,6.52
2023-11-24T17:11:07.456Z,6.29
2023-11-24T17:13:36.726Z,6.19
2023-11-24T17:16:06.420Z,6.05
2023-11-24T17:18:37.510Z,6.05
2023-11-24T17:21:06.449Z,6.03
2023-11-24T17:23:36.204Z,5.75
2023-11-24T17:26:07.429Z,6.18
2023-11-24T17:28:36.083Z,6.22
2023-11-24T17:31:05.758Z,6.06
2023-11-24T17:33:34.963Z,6.13
2023-11-24T17:36:04.709Z,6.36
2023-11-24T17:38:33.238Z,6.20
2023-11-24T17:41:02.051Z,6.08
2023-11-24T17:43:31.872Z,6.38
2023-11-24T17:46:00.321Z,6.35
2023-11-24T17:48:28.716Z,6.50
2023-11-24T17:50:57.106Z,6.66
2023-11-24T17:53:25.364Z,6.11
2023-11-24T17:55:53.802Z,6.29
2023-11-24T17:58:22.183Z,6.62
2023-11-24T18:00:54.610Z,6.37
2023-11-24T18:03:23.033Z,6.45
2023-11-24T18:05:52.041Z,6.33
2023-11-24T18:08:23.344Z,6.44
2023-11-24T18:10:52.085Z,5.93
2023-11-24T18:13:20.590Z,5.84
2023-11-24T18:15:49.315Z,5.95
2023-11-24T18:18:19.189Z,5.86
2023-11-24T18:20:47.800Z,6.07
2023-11-24T18:23:16.174Z,5.75
2023-11-24T18:25:46.792Z,5.74
2023-11-24T18:28:15.661Z,5.60
2023-11-24T18:30:44.491Z,5.94
2023-11-24T18:33:13.308Z,5.70
2023-11-24T18:35:44.753Z,6.09
2023-11-24T18:38:13.225Z,5.84
2023-11-24T18:40:41.818Z,5.69
2023-11-24T18:43:10.263Z,5.92
2023-11-24T18:45:38.672Z,6.00
2023-11-24T18:48:07.513Z,5.60
2023-11-24T18:50:36.011Z,5.67
2023-11-24T18:53:05.863Z,5.61
2023-11-24T18:55:34.495Z,5.40
2023-11-24T18:58:06.071Z,5.57
2023-11-24T19:00:34.453Z,5.49
2023-11-24T19:03:05.782Z,5.63
2023-11-24T19:05:34.263Z,5.55
2023-11-24T19:08:02.681Z,5.34
2023-11-24T19:10:33.048Z,5.60
2023-11-24T19:13:01.446Z,5.50
2023-11-24T19:15:30.023Z,5.46
2023-11-24T19:17:58.409Z,5.16
2023-11-24T19:20:26.865Z,5.16
2023-11-24T19:22:55.504Z,5.30
2023-11-24T19:25:23.938Z,5.34
2023-11-24T19:27:53.884Z,5.42
2023-11-24T19:30:22.213Z,5.55
2023-11-24T19:32:52.399Z,5.28
2023-11-24T19:35:21.021Z,5.23
2023-11-24T19:37:49.492Z,5.08
2023-11-24T19:40:18.631Z,5.08
2023-11-24T19:42:47.002Z,4.87
2023-11-24T19:45:17.604Z,4.87
2023-11-24T19:47:45.947Z,4.95
2023-11-24T19:50:14.555Z,5.03
2023-11-24T19:52:42.855Z,5.53
2023-11-24T19:55:11.509Z,5.20
2023-11-24T19:57:39.866Z,4.97
2023-11-24T20:00:11.187Z,5.28
2023-11-24T20:02:40.886Z,5.15
2023-11-24T20:05:10.109Z,5.31
2023-11-24T20:07:38.365Z,5.07
2023-11-24T20:10:08.044Z,5.17
2023-11-24T20:12:36.324Z,5.08
2023-11-24T20:15:05.202Z,4.90
2023-11-24T20:17:35.002Z,5.00
2023-11-24T20:20:05.328Z,4.95
2023-11-24T20:22:33.627Z,4.90
2023-11-24T20:25:04.488Z,4.96
2023-11-24T20:27:32.969Z,5.38
2023-11-24T20:30:01.566Z,5.37
2023-11-24T20:32:30.153Z,5.37
2023-11-24T20:34:58.842Z,5.28
2023-11-24T20:37:28.706Z,5.30
2023-11-24T20:39:58.331Z,5.46
2023-11-24T20:42:27.314Z,5.50
2023-11-24T20:44:55.677Z,5.56
2023-11-24T20:47:23.949Z,5.68
2023-11-24T20:49:52.662Z,5.68
2023-11-24T20:52:21.620Z,5.76
2023-11-24T20:54:51.490Z,6.00
2023-11-24T20:57:19.788Z,5.70
2023-11-24T20:59:48.486Z,5.54
2023-11-24T21:02:17.158Z,5.44
2023-11-24T21:04:46.026Z,5.40
2023-11-24T21:07:15.897Z,5.54
2023-11-24T21:09:44.206Z,5.70
2023-11-24T21:12:14.324Z,5.36
2023-11-24T21:14:42.762Z,5.38
2023-11-24T21:17:11.313Z,5.62
2023-11-24T21:19:40.232Z,5.40
2023-11-24T21:22:08.767Z,5.32
2023-11-24T21:24:37.150Z,5.58
2023-11-24T21:27:05.898Z,5.00
2023-11-24T21:29:35.689Z,5.13
2023-11-24T21:32:04.846Z,4.98
2023-11-24T21:34:33.249Z,5.04
2023-11-24T21:37:01.657Z,4.66
2023-11-24T21:39:30.041Z,4.83
2023-11-24T21:41:58.468Z,4.74
2023-11-24T21:44:27.633Z,4.74
2023-11-24T21:46:57.435Z,4.70
2023-11-24T21:49:26.016Z,4.56
2023-11-24T21:51:55.113Z,4.56
2023-11-24T21:54:23.556Z,4.53
2023-11-24T21:56:51.822Z,4.36
2023-11-24T21:59:20.275Z,4.35
2023-11-24T22:01:48.860Z,4.26
2023-11-24T22:04:19.011Z,4.32
2023-11-24T22:06:48.659Z,4.42
2023-11-24T22:09:16.942Z,4.35
2023-11-24T22:11:45.634Z,4.32
2023-11-24T22:14:14.381Z,4.35
2023-11-24T22:16:42.866Z,4.50
2023-11-24T22:19:11.718Z,4.38
2023-11-24T22:21:41.584Z,4.38
2023-11-24T22:24:10.106Z,4.40
2023-11-24T22:26:39.312Z,4.15
2023-11-24T22:29:07.778Z,4.11
2023-11-24T22:31:36.068Z,4.07
2023-11-24T22:34:05.206Z,4.12
2023-11-24T22:36:33.503Z,3.92
2023-11-24T22:39:03.492Z,4.22
2023-11-24T22:41:33.788Z,4.16
2023-11-24T22:44:02.172Z,4.22
2023-11-24T22:46:30.489Z,4.36
2023-11-24T22:48:58.849Z,4.23
2023-11-24T22:51:28.357Z,4.15
2023-11-24T22:53:56.942Z,4.40
2023-11-24T22:56:28.123Z,4.14
2023-11-24T22:58:59.706Z,3.99
2023-11-24T23:01:29.855Z,3.92
2023-11-24T23:04:00.645Z,4.06
2023-11-24T23:06:30.412Z,4.24
2023-11-24T23:08:59.719Z,4.05
2023-11-24T23:11:32.791Z,3.95
2023-11-24T23:14:01.459Z,3.90
2023-11-24T23:16:34.197Z,4.00
2023-11-24T23:19:04.880Z,3.87
2023-11-24T23:21:33.421Z,3.78
2023-11-24T23:24:01.779Z,3.88
2023-11-24T23:26:31.859Z,3.74
2023-11-24T23:29:01.545Z,3.69
2023-11-24T23:31:30.113Z,3.65
2023-11-24T23:33:58.382Z,3.78
2023-11-24T23:36:26.836Z,3.72
2023-11-24T23:38:56.237Z,3.50
2023-11-24T23:41:24.819Z,3.59
2023-11-24T23:43:55.025Z,3.73
2023-11-24T23:46:23.496Z,3.45
2023-11-24T23:48:51.898Z,3.72
2023-11-24T23:51:22.032Z,3.86
2023-11-24T23:53:50.613Z,3.79
2023-11-24T23:56:18.875Z,3.67
2023-11-24T23:58:47.163Z,3.67
